Hlavní strana
METAR-TAF:

METAR-TAF

Letiště :

Columbus, Indiana, Spojené státy americké

zeměpisná šířka: 39-16N, zeměpisná délka: 085-54W, výška: 200 m

Aktuální stav počasí

Zpráva byla vytvořena před 35 minutami, v 18:45 UTC
Severoseverozápadní vítr 15 kt s nárazy do 19 kt
Teplota 5°C
Vlhkost vzduchu 81%
Tlak 1021 hPa
Viditelnost: 16.1 km
Oblačno až skoro zataženo ve výšce 1600 ft
Zataženo ve výšce 9000 ft

METAR: KBAK 181845Z 33015G19KT 10SM BKN016 OVC090 05/02 A3014

Čas: 14:20 (19:20 UTC)


TAF: chybějící

Stav a předpovědi počasí z více než 4 000 letišť (zprávy METAR a TAF).

Červené a žluté tečky na mapě představují dostupné meteorologické stanice.

Když kurzor umístíte na tečku, zobrazí se název stanice.

Pak kliknutím zobrazíte stav a předpověď počasí.

Chcete-li změnit mapu, kliknutím na zelené tlačítko se znaménkem +mapu přiblížíte, kliknutím na zelené tlačítko se znaménkem – mapu oddálíte a kliknutím na zelené šipky přejdete na sousední mapy.


METAR-TAF: